Terminal Aerodrome Forecast
Issued by NWS Mobile, AL

Home | Current Version | Previous Version | Text Only | Print | Product List | Glossary On
Versions: 1 2 3 4 5 6 7 8 9 10 11 12
000
FTUS44 KMOB 281120
TAFPNS
TAF
KPNS 281120Z 2812/2912 07004KT P6SM BKN150
     FM281500 17009KT P6SM VCSH SCT050 BKN250
     FM290300 21004KT P6SM FEW250=

USA.gov is the U.S. government's official web portal to all federal, state and local government web resources and services.